Time;durP1;ratioP1;P1;durP2;ratioP2;P2;SDS_P1;SDS_P2;PMS_P1;PMS_P2;Temp;Humidity;BMP_temperature;BMP_pressure;BME280_temperature;BME280_humidity;BME280_pressure;Samples;Min_cycle;Max_cycle;Signal;HPM_P1;HPM_P2
2022/03/23 00:01:34;;;;;;;24.90;14.75;;;;;;;;;;5034331;28;20040;-70
2022/03/23 00:04:03;;;;;;;26.85;14.02;;;;;;;;;;5032359;28;20390;-68
2022/03/23 00:06:28;;;;;;;25.25;13.68;;;;;;;;;;5032818;28;20098;-69
2022/03/23 00:08:54;;;;;;;27.08;14.63;;;;;;;;;;5033625;28;20069;-69
2022/03/23 00:11:20;;;;;;;27.25;14.63;;;;;;;;;;5034595;28;20029;-69
2022/03/23 00:13:46;;;;;;;26.90;14.15;;;;;;;;;;5034249;28;20037;-69
2022/03/23 00:16:11;;;;;;;28.55;14.15;;;;;;;;;;5033271;28;20041;-70
2022/03/23 00:18:37;;;;;;;26.67;14.02;;;;;;;;;;5031613;28;20047;-69
2022/03/23 00:21:02;;;;;;;24.95;14.60;;;;;;;;;;5031468;28;20022;-68
2022/03/23 00:23:28;;;;;;;24.10;14.02;;;;;;;;;;5033916;28;20088;-69
2022/03/23 00:25:54;;;;;;;26.88;13.40;;;;;;;;;;5031680;28;20087;-68
2022/03/23 00:28:20;;;;;;;26.00;14.70;;;;;;;;;;5033723;28;20116;-70
2022/03/23 00:30:48;;;;;;;25.10;14.02;;;;;;;;;;5033684;28;20109;-71
2022/03/23 00:33:14;;;;;;;27.25;14.90;;;;;;;;;;5031606;28;20033;-69
2022/03/23 00:35:41;;;;;;;33.05;14.98;;;;;;;;;;5033699;28;20029;-71
2022/03/23 00:38:06;;;;;;;29.65;15.45;;;;;;;;;;5033127;28;20022;-70
2022/03/23 00:40:32;;;;;;;27.95;14.82;;;;;;;;;;5033601;28;20044;-69
2022/03/23 00:43:01;;;;;;;27.50;15.32;;;;;;;;;;5032637;28;20053;-69
2022/03/23 00:45:28;;;;;;;30.27;15.57;;;;;;;;;;5033342;28;20041;-69
2022/03/23 00:47:54;;;;;;;31.90;16.15;;;;;;;;;;5032584;28;20052;-68
2022/03/23 00:50:19;;;;;;;31.00;15.38;;;;;;;;;;5033365;28;20056;-69
2022/03/23 00:52:47;;;;;;;30.40;15.50;;;;;;;;;;5033300;28;20033;-69
2022/03/23 00:55:14;;;;;;;31.58;16.13;;;;;;;;;;5031226;28;20402;-69
2022/03/23 00:57:39;;;;;;;27.10;14.80;;;;;;;;;;5033343;28;20454;-69
2022/03/23 01:00:09;;;;;;;30.08;15.25;;;;;;;;;;5032592;28;20053;-70
2022/03/23 01:02:35;;;;;;;32.17;16.43;;;;;;;;;;5033281;28;20026;-70
2022/03/23 01:05:02;;;;;;;29.25;15.27;;;;;;;;;;5032405;28;20039;-68
2022/03/23 01:07:27;;;;;;;28.83;14.95;;;;;;;;;;5032926;28;20029;-70
2022/03/23 01:09:53;;;;;;;28.75;14.70;;;;;;;;;;5032769;28;20088;-63
2022/03/23 01:12:18;;;;;;;32.20;15.43;;;;;;;;;;5032919;28;20040;-71
2022/03/23 01:14:44;;;;;;;34.03;15.18;;;;;;;;;;5032640;28;20030;-70
2022/03/23 01:17:09;;;;;;;26.40;14.77;;;;;;;;;;5032096;28;20037;-70
2022/03/23 01:19:35;;;;;;;28.02;15.85;;;;;;;;;;5032800;28;20037;-70
2022/03/23 01:22:01;;;;;;;35.38;16.00;;;;;;;;;;5031939;28;20459;-69
2022/03/23 01:24:27;;;;;;;28.65;14.95;;;;;;;;;;5032929;28;20034;-70
2022/03/23 01:26:52;;;;;;;31.85;15.63;;;;;;;;;;5032610;28;20148;-69
2022/03/23 01:29:17;;;;;;;28.50;15.65;;;;;;;;;;5031827;28;20033;-71
2022/03/23 01:31:43;;;;;;;30.48;16.30;;;;;;;;;;5032241;28;20387;-70
2022/03/23 01:34:08;;;;;;;28.23;15.43;;;;;;;;;;5032034;28;20033;-72
2022/03/23 01:36:34;;;;;;;29.05;15.20;;;;;;;;;;5032151;28;20455;-69
2022/03/23 01:38:59;;;;;;;26.90;15.15;;;;;;;;;;5032046;28;20034;-69
2022/03/23 01:41:26;;;;;;;28.80;15.45;;;;;;;;;;5030898;28;20025;-69
2022/03/23 01:43:51;;;;;;;28.60;15.57;;;;;;;;;;5032171;28;20468;-70
2022/03/23 01:46:19;;;;;;;25.40;15.07;;;;;;;;;;5031424;28;20052;-70
2022/03/23 01:48:45;;;;;;;33.00;15.23;;;;;;;;;;5032192;28;20038;-69
2022/03/23 01:51:11;;;;;;;31.58;16.48;;;;;;;;;;5030498;28;20068;-69
2022/03/23 01:53:37;;;;;;;27.00;14.27;;;;;;;;;;5032064;28;20041;-70
2022/03/23 01:56:03;;;;;;;26.58;15.43;;;;;;;;;;5031591;28;20033;-70
2022/03/23 01:58:28;;;;;;;29.00;15.40;;;;;;;;;;5032270;28;20029;-70
2022/03/23 02:00:54;;;;;;;33.78;15.32;;;;;;;;;;5032228;28;20037;-71
2022/03/23 02:03:19;;;;;;;27.30;14.90;;;;;;;;;;5031640;28;20041;-70
2022/03/23 02:05:44;;;;;;;30.33;15.52;;;;;;;;;;5032226;28;20378;-70
2022/03/23 02:08:11;;;;;;;29.92;15.73;;;;;;;;;;5031658;28;20032;-70
2022/03/23 02:10:37;;;;;;;31.27;15.40;;;;;;;;;;5032240;28;20041;-69
2022/03/23 02:13:02;;;;;;;30.08;15.30;;;;;;;;;;5031517;28;20034;-70
2022/03/23 02:15:29;;;;;;;28.25;15.30;;;;;;;;;;5032257;28;20113;-69
2022/03/23 02:17:56;;;;;;;29.15;15.45;;;;;;;;;;5031912;28;20021;-70
2022/03/23 02:20:23;;;;;;;28.73;15.13;;;;;;;;;;5032049;28;20033;-70
2022/03/23 02:22:48;;;;;;;30.98;15.63;;;;;;;;;;5032057;28;20384;-70
2022/03/23 02:25:20;;;;;;;28.60;14.65;;;;;;;;;;5031385;28;20034;-71
2022/03/23 02:27:45;;;;;;;;;;;;;;;;;;5032165;28;20029;-68
2022/03/23 02:30:11;;;;;;;30.83;14.60;;;;;;;;;;5031206;28;19916;-70
2022/03/23 02:32:36;;;;;;;29.77;15.30;;;;;;;;;;5031655;28;20026;-70
2022/03/23 02:35:03;;;;;;;30.25;15.20;;;;;;;;;;5031297;28;20029;-69
2022/03/23 02:37:28;;;;;;;30.67;15.13;;;;;;;;;;5031777;28;20038;-69
2022/03/23 02:39:55;;;;;;;27.27;15.05;;;;;;;;;;5030605;28;20030;-69
2022/03/23 02:42:20;;;;;;;27.83;14.85;;;;;;;;;;5031815;28;20467;-70
2022/03/23 02:44:45;;;;;;;28.50;14.85;;;;;;;;;;5035759;28;20067;-70
2022/03/23 02:47:12;;;;;;;27.17;14.57;;;;;;;;;;5034636;28;20087;-69
2022/03/23 02:49:37;;;;;;;25.88;14.77;;;;;;;;;;5034338;28;20034;-69
2022/03/23 02:52:03;;;;;;;28.33;15.77;;;;;;;;;;5034976;28;20507;-70
2022/03/23 03:03:32;;;;;;;28.33;14.73;;;;;;;;;;5055129;28;20044;-69
2022/03/23 03:05:58;;;;;;;31.88;14.40;;;;;;;;;;5055209;28;20021;-70
2022/03/23 03:11:07;;;;;;;26.73;13.88;;;;;;;;;;5054374;28;20044;-71
2022/03/23 03:13:32;;;;;;;27.50;15.27;;;;;;;;;;5055291;28;20037;-71
2022/03/23 03:16:03;;;;;;;27.83;15.40;;;;;;;;;;5055017;28;20062;-71
2022/03/23 03:18:33;;;;;;;32.90;15.15;;;;;;;;;;5054967;28;20033;-71
2022/03/23 03:21:00;;;;;;;29.30;15.10;;;;;;;;;;5055032;28;20033;-70
2022/03/23 03:23:26;;;;;;;29.48;15.02;;;;;;;;;;5054570;28;20161;-70
2022/03/23 03:25:52;;;;;;;31.17;15.07;;;;;;;;;;5054593;28;20066;-69
2022/03/23 03:28:17;;;;;;;29.48;15.05;;;;;;;;;;5054085;28;20029;-69
2022/03/23 03:34:13;;;;;;;28.33;15.52;;;;;;;;;;5034173;28;20044;-69
2022/03/23 03:36:38;;;;;;;30.13;16.58;;;;;;;;;;5054493;28;20036;-70
2022/03/23 03:39:04;;;;;;;30.45;15.77;;;;;;;;;;5054078;28;20400;-69
2022/03/23 03:41:31;;;;;;;30.73;16.20;;;;;;;;;;5054800;28;20025;-70
2022/03/23 03:43:57;;;;;;;28.00;15.65;;;;;;;;;;5054362;28;20494;-70
2022/03/23 03:46:22;;;;;;;28.70;15.32;;;;;;;;;;5053464;28;20173;-69
2022/03/23 03:48:48;;;;;;;30.98;16.75;;;;;;;;;;5054110;28;20025;-70
2022/03/23 03:51:13;;;;;;;29.42;16.33;;;;;;;;;;5053783;28;20526;-68
2022/03/23 03:53:39;;;;;;;28.58;15.40;;;;;;;;;;5054274;28;20052;-70
2022/03/23 03:56:04;;;;;;;29.88;15.35;;;;;;;;;;5053674;28;20374;-67
2022/03/23 03:58:30;;;;;;;25.58;14.90;;;;;;;;;;5054413;28;20036;-69
2022/03/23 04:00:55;;;;;;;30.33;14.90;;;;;;;;;;5054312;28;20478;-68
2022/03/23 04:03:21;;;;;;;28.10;15.05;;;;;;;;;;5053505;28;20033;-70
2022/03/23 04:05:46;;;;;;;25.42;14.63;;;;;;;;;;5052962;28;20386;-70
2022/03/23 04:08:12;;;;;;;28.92;15.02;;;;;;;;;;5053489;28;20032;-69
2022/03/23 04:10:37;;;;;;;33.70;15.02;;;;;;;;;;5054113;28;20059;-69
2022/03/23 04:13:04;;;;;;;26.20;14.48;;;;;;;;;;5053822;28;20113;-69
2022/03/23 04:15:29;;;;;;;27.83;15.32;;;;;;;;;;5053621;28;20424;-69
2022/03/23 04:17:55;;;;;;;36.42;16.02;;;;;;;;;;5053595;28;20029;-70
2022/03/23 04:20:22;;;;;;;27.50;14.63;;;;;;;;;;5053233;28;20025;-69
2022/03/23 04:22:48;;;;;;;29.30;15.98;;;;;;;;;;5053961;28;20128;-72
2022/03/23 04:25:15;;;;;;;29.35;15.55;;;;;;;;;;5053160;28;20117;-69
2022/03/23 04:27:47;;;;;;;29.13;15.80;;;;;;;;;;5053720;28;20036;-70
2022/03/23 04:30:14;;;;;;;32.30;16.48;;;;;;;;;;5052763;28;20409;-69
2022/03/23 04:32:39;;;;;;;34.22;15.43;;;;;;;;;;5053792;28;20025;-69
2022/03/23 04:35:05;;;;;;;31.50;16.45;;;;;;;;;;5051822;28;20033;-64
2022/03/23 04:37:31;;;;;;;27.25;16.23;;;;;;;;;;5053167;28;20163;-70
2022/03/23 04:39:57;;;;;;;33.83;15.48;;;;;;;;;;5053367;28;20064;-69
2022/03/23 04:42:22;;;;;;;30.02;15.75;;;;;;;;;;5052947;28;20029;-71
2022/03/23 04:44:48;;;;;;;28.42;16.15;;;;;;;;;;5053117;28;20029;-70
2022/03/23 04:47:13;;;;;;;29.17;15.32;;;;;;;;;;5052280;28;20466;-69
2022/03/23 04:49:39;;;;;;;32.38;16.17;;;;;;;;;;5053313;28;20033;-70
2022/03/23 04:52:04;;;;;;;29.83;16.00;;;;;;;;;;5053351;28;20033;-70
2022/03/23 04:54:29;;;;;;;31.80;16.40;;;;;;;;;;5052378;28;20383;-70
2022/03/23 04:56:55;;;;;;;29.58;15.82;;;;;;;;;;5053085;28;20054;-70
2022/03/23 04:59:21;;;;;;;30.17;15.60;;;;;;;;;;5052382;28;20395;-69
2022/03/23 05:01:47;;;;;;;30.50;15.05;;;;;;;;;;5053321;28;20029;-69
2022/03/23 05:04:12;;;;;;;31.00;15.95;;;;;;;;;;5052515;28;20041;-69
2022/03/23 05:06:38;;;;;;;32.33;16.20;;;;;;;;;;5052008;28;20036;-70
2022/03/23 05:09:03;;;;;;;28.20;14.65;;;;;;;;;;5053107;28;20111;-70
2022/03/23 05:11:29;;;;;;;26.08;15.23;;;;;;;;;;5052528;28;20047;-70
2022/03/23 05:13:55;;;;;;;27.08;16.02;;;;;;;;;;5053251;28;20117;-70
2022/03/23 05:16:20;;;;;;;29.13;15.77;;;;;;;;;;5052286;28;20033;-70
2022/03/23 05:18:45;;;;;;;33.40;16.25;;;;;;;;;;5051855;28;20032;-70
2022/03/23 05:21:11;;;;;;;29.08;15.18;;;;;;;;;;5051950;28;20383;-68
2022/03/23 05:23:37;;;;;;;30.38;16.10;;;;;;;;;;5051458;28;20459;-71
2022/03/23 05:26:02;;;;;;;33.33;15.70;;;;;;;;;;5052733;28;20029;-70
2022/03/23 05:28:28;;;;;;;30.55;15.63;;;;;;;;;;5051832;28;20363;-70
2022/03/23 05:30:53;;;;;;;33.45;15.73;;;;;;;;;;5052708;28;20029;-70
2022/03/23 05:33:19;;;;;;;27.48;15.55;;;;;;;;;;5051868;28;20029;-70
2022/03/23 05:35:44;;;;;;;27.85;15.50;;;;;;;;;;5051571;28;20025;-69
2022/03/23 05:38:09;;;;;;;27.13;16.02;;;;;;;;;;5051743;28;20040;-67
2022/03/23 05:40:35;;;;;;;29.75;15.55;;;;;;;;;;5051369;28;20056;-69
2022/03/23 05:43:00;;;;;;;30.80;16.00;;;;;;;;;;5052605;28;20025;-70
2022/03/23 05:45:25;;;;;;;27.92;15.55;;;;;;;;;;5051602;28;20493;-70
2022/03/23 05:47:53;;;;;;;34.53;16.65;;;;;;;;;;5052473;28;20033;-70
2022/03/23 05:50:19;;;;;;;28.05;15.13;;;;;;;;;;5051753;28;20040;-69
2022/03/23 05:52:45;;;;;;;27.17;15.05;;;;;;;;;;5052191;28;20436;-70
2022/03/23 05:55:10;;;;;;;35.72;17.02;;;;;;;;;;5051823;28;20033;-69
2022/03/23 05:57:37;;;;;;;33.47;16.92;;;;;;;;;;5052092;28;20025;-70
2022/03/23 06:00:04;;;;;;;33.20;16.27;;;;;;;;;;5052187;28;20132;-70
2022/03/23 06:02:30;;;;;;;29.95;15.85;;;;;;;;;;5051770;28;20259;-70
2022/03/23 06:04:55;;;;;;;30.67;15.52;;;;;;;;;;5052157;28;20029;-70
2022/03/23 06:07:21;;;;;;;32.08;16.80;;;;;;;;;;5051246;28;20386;-70
2022/03/23 06:09:46;;;;;;;29.58;16.17;;;;;;;;;;5052275;28;20382;-69
2022/03/23 06:12:12;;;;;;;32.78;15.75;;;;;;;;;;5051441;28;20033;-68
2022/03/23 06:14:42;;;;;;;31.02;16.58;;;;;;;;;;5052376;28;20037;-70
2022/03/23 06:17:08;;;;;;;31.60;16.85;;;;;;;;;;5052508;28;20059;-68
2022/03/23 06:19:34;;;;;;;28.65;16.33;;;;;;;;;;5055634;28;20378;-70
2022/03/23 06:21:59;;;;;;;31.63;16.55;;;;;;;;;;5055992;28;20467;-70
2022/03/23 06:24:25;;;;;;;32.05;16.75;;;;;;;;;;5055629;28;20037;-69
2022/03/23 06:26:50;;;;;;;30.77;17.17;;;;;;;;;;5054753;28;20043;-68
2022/03/23 06:29:15;;;;;;;35.22;17.38;;;;;;;;;;5055303;28;20082;-68
2022/03/23 06:31:41;;;;;;;36.97;17.30;;;;;;;;;;5056233;28;20040;-68
2022/03/23 06:34:07;;;;;;;32.80;16.65;;;;;;;;;;5055934;28;20036;-69
2022/03/23 06:36:35;;;;;;;33.08;16.50;;;;;;;;;;5055244;28;20036;-67
2022/03/23 06:39:01;;;;;;;34.05;16.63;;;;;;;;;;5055905;28;20119;-69
2022/03/23 06:41:27;;;;;;;30.88;16.38;;;;;;;;;;5055241;28;20024;-70
2022/03/23 06:43:52;;;;;;;33.75;17.65;;;;;;;;;;5055784;28;20037;-68
2022/03/23 06:46:18;;;;;;;37.08;16.65;;;;;;;;;;5054750;28;20033;-68
2022/03/23 06:48:45;;;;;;;33.92;17.67;;;;;;;;;;5071026;28;20025;-69
2022/03/23 06:51:11;;;;;;;36.33;17.60;;;;;;;;;;5055680;28;20033;-69
2022/03/23 06:53:36;;;;;;;33.38;17.13;;;;;;;;;;5055197;28;20029;-69
2022/03/23 06:56:01;;;;;;;34.67;17.13;;;;;;;;;;5054980;28;20056;-69
2022/03/23 06:58:27;;;;;;;31.90;17.63;;;;;;;;;;5054788;28;20037;-68
2022/03/23 07:00:52;;;;;;;29.02;17.55;;;;;;;;;;5055432;28;20025;-68
2022/03/23 07:03:17;;;;;;;34.60;17.15;;;;;;;;;;5054681;28;20496;-69
2022/03/23 07:05:43;;;;;;;32.22;17.40;;;;;;;;;;5055357;28;20033;-69
2022/03/23 07:10:52;;;;;;;32.00;17.92;;;;;;;;;;5055021;28;20080;-69
2022/03/23 07:13:17;;;;;;;36.10;17.80;;;;;;;;;;5053261;28;20049;-69
2022/03/23 07:15:44;;;;;;;33.70;17.00;;;;;;;;;;5055060;28;20517;-69
2022/03/23 07:18:10;;;;;;;35.75;17.75;;;;;;;;;;5054933;28;20033;-70
2022/03/23 07:20:36;;;;;;;34.33;18.02;;;;;;;;;;5053996;28;20045;-70
2022/03/23 07:23:01;;;;;;;33.83;17.83;;;;;;;;;;5055164;28;20103;-70
2022/03/23 07:25:26;;;;;;;31.65;17.45;;;;;;;;;;5069497;28;20029;-69
2022/03/23 07:27:52;;;;;;;33.90;18.58;;;;;;;;;;5054473;28;20052;-69
2022/03/23 07:30:17;;;;;;;36.72;18.58;;;;;;;;;;5054274;28;20025;-67
2022/03/23 07:32:43;;;;;;;35.78;18.33;;;;;;;;;;5053741;28;20036;-69
2022/03/23 07:35:08;;;;;;;30.95;18.00;;;;;;;;;;5054796;28;20091;-70
2022/03/23 07:37:34;;;;;;;35.00;18.08;;;;;;;;;;5053937;28;20090;-70
2022/03/23 07:39:59;;;;;;;35.33;17.70;;;;;;;;;;5053482;28;20048;-70
2022/03/23 07:42:25;;;;;;;37.53;17.33;;;;;;;;;;5053878;28;20036;-69
2022/03/23 07:44:50;;;;;;;36.42;17.95;;;;;;;;;;5054812;28;20369;-70
2022/03/23 07:47:16;;;;;;;31.15;17.38;;;;;;;;;;5054414;28;20025;-70
2022/03/23 07:49:42;;;;;;;33.85;18.27;;;;;;;;;;5053797;28;20229;-69
2022/03/23 07:52:08;;;;;;;31.77;17.85;;;;;;;;;;5054264;28;20161;-70
2022/03/23 07:54:34;;;;;;;29.88;17.60;;;;;;;;;;5053828;28;20111;-68
2022/03/23 07:57:00;;;;;;;31.13;18.50;;;;;;;;;;5054319;28;20112;-68
2022/03/23 07:59:26;;;;;;;30.42;17.10;;;;;;;;;;5053709;28;20079;-69
2022/03/23 08:01:51;;;;;;;29.65;17.15;;;;;;;;;;5053429;28;20033;-69
2022/03/23 08:04:16;;;;;;;33.83;16.98;;;;;;;;;;5054250;28;20430;-70
2022/03/23 08:06:42;;;;;;;28.02;16.38;;;;;;;;;;5053671;28;20037;-70
2022/03/23 08:09:07;;;;;;;27.60;16.77;;;;;;;;;;5053850;28;20102;-68
2022/03/23 08:11:33;;;;;;;32.38;16.95;;;;;;;;;;5053702;28;20459;-68
2022/03/23 08:13:59;;;;;;;29.40;16.88;;;;;;;;;;5054316;28;20033;-69
2022/03/23 08:16:24;;;;;;;30.63;16.70;;;;;;;;;;5053512;28;20060;-70
2022/03/23 08:18:52;;;;;;;30.63;16.50;;;;;;;;;;5053702;28;20471;-70
2022/03/23 08:21:19;;;;;;;29.02;15.90;;;;;;;;;;5052601;28;20041;-70
2022/03/23 08:23:45;;;;;;;29.02;16.65;;;;;;;;;;5053829;28;20040;-68
2022/03/23 08:26:14;;;;;;;31.38;17.10;;;;;;;;;;5052545;28;20130;-69
2022/03/23 08:28:39;;;;;;;30.45;17.25;;;;;;;;;;5053133;28;20036;-70
2022/03/23 08:31:04;;;;;;;30.90;17.35;;;;;;;;;;5053827;28;20032;-69
2022/03/23 08:33:34;;;;;;;32.53;17.33;;;;;;;;;;5053037;28;20072;-70
2022/03/23 08:35:59;;;;;;;28.58;16.77;;;;;;;;;;5053682;28;20116;-70
2022/03/23 08:38:25;;;;;;;34.35;17.02;;;;;;;;;;5052988;28;20095;-68
2022/03/23 08:40:50;;;;;;;33.90;17.10;;;;;;;;;;5052510;28;20037;-70
2022/03/23 08:43:16;;;;;;;33.83;16.67;;;;;;;;;;5053657;28;20025;-68
2022/03/23 08:45:42;;;;;;;29.85;17.05;;;;;;;;;;5051513;28;20037;-69
2022/03/23 08:48:09;;;;;;;29.25;16.77;;;;;;;;;;5053799;28;20033;-70
2022/03/23 08:50:34;;;;;;;31.27;17.35;;;;;;;;;;5052932;28;20111;-68
2022/03/23 08:53:00;;;;;;;30.80;18.17;;;;;;;;;;5053463;28;20068;-70
2022/03/23 08:55:26;;;;;;;38.80;18.15;;;;;;;;;;5052738;28;20463;-70
2022/03/23 08:57:53;;;;;;;29.30;16.65;;;;;;;;;;5053385;28;20108;-70
2022/03/23 09:00:19;;;;;;;27.90;16.60;;;;;;;;;;5053260;28;20425;-69
2022/03/23 09:02:44;;;;;;;32.35;17.88;;;;;;;;;;5052482;28;20033;-69
2022/03/23 09:05:11;;;;;;;30.50;16.38;;;;;;;;;;5052920;28;20040;-68
2022/03/23 09:07:38;;;;;;;29.13;17.02;;;;;;;;;;5052254;28;20486;-69
2022/03/23 09:10:05;;;;;;;30.55;16.70;;;;;;;;;;5052932;28;20033;-68
2022/03/23 09:12:31;;;;;;;31.83;16.88;;;;;;;;;;5052273;28;20056;-68
2022/03/23 09:14:56;;;;;;;28.58;16.83;;;;;;;;;;5052730;28;20463;-70
2022/03/23 09:17:22;;;;;;;31.63;17.10;;;;;;;;;;5052707;28;20486;-65
2022/03/23 09:19:48;;;;;;;33.22;17.88;;;;;;;;;;5052229;28;20025;-68
2022/03/23 09:22:13;;;;;;;27.48;16.48;;;;;;;;;;5052855;28;20043;-69
2022/03/23 09:24:39;;;;;;;28.88;17.00;;;;;;;;;;5052184;28;20036;-68
2022/03/23 09:27:04;;;;;;;30.77;17.40;;;;;;;;;;5052824;28;20124;-69
2022/03/23 09:29:30;;;;;;;29.02;16.55;;;;;;;;;;5050904;28;20390;-67
2022/03/23 09:31:55;;;;;;;27.38;17.00;;;;;;;;;;5067816;28;20509;-68
2022/03/23 09:34:21;;;;;;;28.60;17.02;;;;;;;;;;5052376;28;20106;-68
2022/03/23 09:39:30;;;;;;;33.10;16.95;;;;;;;;;;5051712;28;20031;-68
2022/03/23 09:41:58;;;;;;;28.60;17.17;;;;;;;;;;5052568;28;20124;-68
2022/03/23 09:44:28;;;;;;;28.88;16.50;;;;;;;;;;5052446;28;20431;-65
2022/03/23 09:46:54;;;;;;;30.95;16.80;;;;;;;;;;5052680;28;20521;-68
2022/03/23 09:49:22;;;;;;;28.17;16.67;;;;;;;;;;5052445;28;20033;-68
2022/03/23 09:51:51;;;;;;;34.95;17.08;;;;;;;;;;5051725;28;20029;-68
2022/03/23 09:54:17;;;;;;;30.85;17.20;;;;;;;;;;5052494;28;20025;-70
2022/03/23 09:56:42;;;;;;;31.88;17.27;;;;;;;;;;5051742;28;20035;-69
2022/03/23 09:59:07;;;;;;;26.42;16.63;;;;;;;;;;5052210;28;20455;-69
2022/03/23 10:01:49;;;;;;;31.45;16.40;;;;;;;;;;5051427;28;20129;-69
2022/03/23 10:04:20;;;;;;;31.80;16.98;;;;;;;;;;5052060;28;20044;-69
2022/03/23 10:07:15;;;;;;;32.83;17.58;;;;;;;;;;5051556;28;20041;-69
2022/03/23 10:10:19;;;;;;;28.45;16.30;;;;;;;;;;5051392;28;20494;-70
2022/03/23 10:12:47;;;;;;;30.88;16.95;;;;;;;;;;5039893;28;20363;-69
2022/03/23 10:15:50;;;;;;;30.73;17.45;;;;;;;;;;5052188;28;20037;-69
2022/03/23 10:18:53;;;;;;;30.60;17.77;;;;;;;;;;5052312;28;20029;-69
2022/03/23 10:21:20;;;;;;;28.17;16.75;;;;;;;;;;5051907;28;20029;-69
2022/03/23 10:23:58;;;;;;;27.25;17.48;;;;;;;;;;5066844;28;20281;-69
2022/03/23 10:26:23;;;;;;;30.42;16.88;;;;;;;;;;5050766;28;20033;-69
2022/03/23 10:28:49;;;;;;;26.60;16.67;;;;;;;;;;5051183;28;20119;-68
2022/03/23 10:31:27;;;;;;;31.33;17.08;;;;;;;;;;5052022;28;20037;-69
2022/03/23 10:33:57;;;;;;;28.60;17.08;;;;;;;;;;5052228;28;20037;-68
2022/03/23 10:36:24;;;;;;;28.30;17.35;;;;;;;;;;5050726;28;20029;-68
2022/03/23 10:38:49;;;;;;;26.77;16.63;;;;;;;;;;5051480;28;20370;-69
2022/03/23 10:41:24;;;;;;;28.65;17.42;;;;;;;;;;5050626;28;20029;-68
2022/03/23 10:43:50;;;;;;;28.77;17.02;;;;;;;;;;5051057;28;20040;-68
2022/03/23 10:46:17;;;;;;;31.55;16.95;;;;;;;;;;5051866;28;20037;-69
2022/03/23 10:48:59;;;;;;;29.60;16.92;;;;;;;;;;5051022;28;20030;-69
2022/03/23 10:51:27;;;;;;;27.02;16.33;;;;;;;;;;5051903;28;20356;-68
2022/03/23 10:53:53;;;;;;;28.30;17.38;;;;;;;;;;5051330;28;20037;-68
2022/03/23 10:56:29;;;;;;;28.83;17.75;;;;;;;;;;5051729;28;20037;-68
2022/03/23 10:59:19;;;;;;;25.60;16.40;;;;;;;;;;5051841;28;20025;-69
2022/03/23 11:02:03;;;;;;;28.10;17.00;;;;;;;;;;5049978;28;20029;-69
2022/03/23 11:04:30;;;;;;;28.40;16.52;;;;;;;;;;5054009;28;20033;-64
2022/03/23 11:06:58;;;;;;;25.70;15.85;;;;;;;;;;5055326;28;20454;-68
2022/03/23 11:18:13;;;;;;;28.50;15.88;;;;;;;;;;5054834;28;20090;-68
2022/03/23 11:20:45;;;;;;;25.85;16.45;;;;;;;;;;5053196;28;20434;-69
2022/03/23 11:23:25;;;;;;;27.15;16.42;;;;;;;;;;5055317;28;20102;-68
2022/03/23 11:25:53;;;;;;;26.33;15.93;;;;;;;;;;5054433;28;20147;-68
2022/03/23 11:28:19;;;;;;;25.52;15.10;;;;;;;;;;5054650;28;20712;-68
2022/03/23 11:30:46;;;;;;;24.02;15.57;;;;;;;;;;5053123;28;20516;-68
2022/03/23 11:33:14;;;;;;;23.27;15.15;;;;;;;;;;5054756;28;20466;-69
2022/03/23 11:35:48;;;;;;;20.50;14.50;;;;;;;;;;5054478;28;20123;-68
2022/03/23 11:38:20;;;;;;;20.83;14.43;;;;;;;;;;5070190;28;20082;-67
2022/03/23 11:40:47;;;;;;;18.92;12.68;;;;;;;;;;5052842;28;20032;-68
2022/03/23 11:43:16;;;;;;;20.17;13.15;;;;;;;;;;5053344;28;20091;-68
2022/03/23 11:45:44;;;;;;;19.83;13.32;;;;;;;;;;5053908;28;20528;-67
2022/03/23 11:48:41;;;;;;;24.75;14.68;;;;;;;;;;5052959;28;20501;-67
2022/03/23 11:51:18;;;;;;;23.20;14.75;;;;;;;;;;5069838;28;20528;-68
2022/03/23 11:54:17;;;;;;;18.88;14.63;;;;;;;;;;5053993;28;20041;-68
2022/03/23 11:56:56;;;;;;;19.48;12.88;;;;;;;;;;5053543;28;20043;-68
2022/03/23 11:59:29;;;;;;;20.75;14.38;;;;;;;;;;5054373;28;20028;-68
2022/03/23 12:01:56;;;;;;;17.98;12.80;;;;;;;;;;5053816;28;20029;-68
2022/03/23 12:04:28;;;;;;;19.15;13.30;;;;;;;;;;5053973;28;20059;-68
2022/03/23 12:07:02;;;;;;;17.85;11.90;;;;;;;;;;5053752;28;20033;-68
2022/03/23 12:09:42;;;;;;;16.23;12.23;;;;;;;;;;5054155;28;20417;-68
2022/03/23 12:12:38;;;;;;;16.57;12.07;;;;;;;;;;5054365;28;20451;-68
2022/03/23 12:15:22;;;;;;;15.57;11.15;;;;;;;;;;5054454;28;20171;-69
2022/03/23 12:17:54;;;;;;;18.23;11.43;;;;;;;;;;5053453;28;20037;-68
2022/03/23 12:20:31;;;;;;;16.95;12.52;;;;;;;;;;5054056;28;20378;-69
2022/03/23 12:23:42;;;;;;;18.25;13.20;;;;;;;;;;5053489;28;20053;-68
2022/03/23 12:26:11;;;;;;;19.17;13.43;;;;;;;;;;5052892;28;20383;-68
2022/03/23 12:28:55;;;;;;;19.85;13.60;;;;;;;;;;5053517;28;20028;-69
2022/03/23 12:31:21;;;;;;;19.58;12.43;;;;;;;;;;5052786;28;20047;-68
2022/03/23 12:34:05;;;;;;;20.88;13.43;;;;;;;;;;5053236;28;20037;-69
2022/03/23 12:39:24;;;;;;;17.85;13.30;;;;;;;;;;5053320;28;20031;-69
2022/03/23 12:41:49;;;;;;;16.77;13.30;;;;;;;;;;5053038;28;20037;-68
2022/03/23 12:44:15;;;;;;;17.98;13.57;;;;;;;;;;5053508;28;20025;-69
2022/03/23 12:46:47;;;;;;;18.42;13.52;;;;;;;;;;5052830;28;20020;-69
2022/03/23 12:58:04;;;;;;;19.92;13.50;;;;;;;;;;5052510;28;20075;-68
2022/03/23 13:00:33;;;;;;;21.00;14.27;;;;;;;;;;5053269;28;20028;-69
2022/03/23 13:03:04;;;;;;;19.92;13.68;;;;;;;;;;5052643;28;20033;-70
2022/03/23 13:05:31;;;;;;;20.45;14.85;;;;;;;;;;5052966;28;20036;-68
2022/03/23 13:07:57;;;;;;;23.25;14.45;;;;;;;;;;5052548;28;20029;-70
2022/03/23 13:10:24;;;;;;;19.95;14.70;;;;;;;;;;5053101;28;20031;-70
2022/03/23 13:12:50;;;;;;;21.20;15.00;;;;;;;;;;5052473;28;20489;-69
2022/03/23 13:15:18;;;;;;;22.55;15.07;;;;;;;;;;5053096;28;20488;-69
2022/03/23 13:17:48;;;;;;;20.73;14.55;;;;;;;;;;5067753;28;20126;-69
2022/03/23 13:20:16;;;;;;;20.00;15.05;;;;;;;;;;5052670;28;20371;-69
2022/03/23 13:22:42;;;;;;;22.52;13.57;;;;;;;;;;5052134;28;20436;-68
2022/03/23 13:25:12;;;;;;;21.33;15.02;;;;;;;;;;5051655;28;20028;-69
2022/03/23 13:27:38;;;;;;;19.38;13.80;;;;;;;;;;5050105;28;20033;-67
2022/03/23 13:30:08;;;;;;;26.67;13.52;;;;;;;;;;5052644;28;20032;-68
2022/03/23 13:32:36;;;;;;;19.02;13.15;;;;;;;;;;5052445;28;20094;-68
2022/03/23 13:35:02;;;;;;;18.85;14.27;;;;;;;;;;5052426;28;20037;-68
2022/03/23 13:37:30;;;;;;;19.13;13.52;;;;;;;;;;5052688;28;20032;-68
2022/03/23 13:39:55;;;;;;;19.98;14.25;;;;;;;;;;5051628;28;20420;-68
2022/03/23 13:45:09;;;;;;;18.55;14.32;;;;;;;;;;5052291;28;20040;-68
2022/03/23 13:47:44;;;;;;;23.02;15.68;;;;;;;;;;5052826;28;20036;-69
2022/03/23 13:50:11;;;;;;;21.85;14.82;;;;;;;;;;5052372;28;20029;-68
2022/03/23 13:52:38;;;;;;;22.30;15.32;;;;;;;;;;5052520;28;20025;-68
2022/03/23 13:55:06;;;;;;;20.25;14.85;;;;;;;;;;5052602;28;20363;-68
2022/03/23 13:57:31;;;;;;;20.60;15.77;;;;;;;;;;5052104;28;20360;-68
2022/03/23 13:59:58;;;;;;;20.33;14.88;;;;;;;;;;5051451;28;20036;-68
2022/03/23 14:02:26;;;;;;;19.70;15.18;;;;;;;;;;5052363;28;20032;-68
2022/03/23 14:04:52;;;;;;;20.98;15.50;;;;;;;;;;5051641;28;20487;-68
2022/03/23 14:07:18;;;;;;;24.98;15.98;;;;;;;;;;5052309;28;20029;-68
2022/03/23 14:09:44;;;;;;;21.02;14.75;;;;;;;;;;5066646;28;20036;-68
2022/03/23 14:12:11;;;;;;;20.38;15.20;;;;;;;;;;5067736;28;20040;-68
2022/03/23 14:14:40;;;;;;;20.95;15.57;;;;;;;;;;5052215;28;20033;-68
2022/03/23 14:17:16;;;;;;;21.33;16.67;;;;;;;;;;5051311;28;20467;-69
2022/03/23 14:19:46;;;;;;;22.55;16.85;;;;;;;;;;5051332;28;20029;-64
2022/03/23 14:22:15;;;;;;;24.75;17.33;;;;;;;;;;5051887;28;20041;-69
2022/03/23 14:24:42;;;;;;;25.07;17.10;;;;;;;;;;5051504;28;20044;-66
2022/03/23 14:27:15;;;;;;;23.38;16.55;;;;;;;;;;5052093;28;20036;-69
2022/03/23 14:30:09;;;;;;;23.85;16.67;;;;;;;;;;5051791;28;20033;-64
2022/03/23 14:32:42;;;;;;;25.38;17.20;;;;;;;;;;5052139;28;20033;-69
2022/03/23 14:35:13;;;;;;;21.55;16.38;;;;;;;;;;5051890;28;20526;-69
2022/03/23 14:37:44;;;;;;;24.05;17.55;;;;;;;;;;5052016;28;20048;-69
2022/03/23 14:40:36;;;;;;;23.27;17.25;;;;;;;;;;5055922;28;20090;-69
2022/03/23 14:43:07;;;;;;;26.25;18.17;;;;;;;;;;5055495;28;20122;-69
2022/03/23 14:45:42;;;;;;;24.27;16.88;;;;;;;;;;5054626;28;20029;-69
2022/03/23 14:48:27;;;;;;;23.38;17.10;;;;;;;;;;5055777;28;20028;-69
2022/03/23 14:50:55;;;;;;;25.50;16.67;;;;;;;;;;5055207;28;20585;-69
2022/03/23 14:53:26;;;;;;;24.10;17.00;;;;;;;;;;5055836;28;20035;-68
2022/03/23 14:55:56;;;;;;;25.25;17.70;;;;;;;;;;5055241;28;20025;-68
2022/03/23 14:58:31;;;;;;;26.90;17.85;;;;;;;;;;5054379;28;20029;-69
2022/03/23 15:00:58;;;;;;;21.52;16.63;;;;;;;;;;5055119;28;20037;-68
2022/03/23 15:03:29;;;;;;;24.38;17.13;;;;;;;;;;5054403;28;20120;-68
2022/03/23 15:14:08;;;;;;;24.67;17.35;;;;;;;;;;5055905;28;20466;-69
2022/03/23 15:16:36;;;;;;;23.63;17.38;;;;;;;;;;5055154;28;20041;-69